sensor_id;sensor_type;location;lat;lon;timestamp;pressure;altitude;pressure_sealevel;temperature;humidity
3917;BME280;1973;50.518;7.318;2023-08-17T00:01:12;101049.75;;;20.48;100.00
3917;BME280;1973;50.518;7.318;2023-08-17T00:03:38;101050.34;;;20.50;100.00
3917;BME280;1973;50.518;7.318;2023-08-17T00:06:05;101055.63;;;20.52;100.00
3917;BME280;1973;50.518;7.318;2023-08-17T00:08:32;101059.84;;;20.54;100.00
3917;BME280;1973;50.518;7.318;2023-08-17T00:10:59;101067.09;;;20.55;100.00
3917;BME280;1973;50.518;7.318;2023-08-17T00:13:25;101063.22;;;20.56;100.00
3917;BME280;1973;50.518;7.318;2023-08-17T00:15:52;101066.84;;;20.57;100.00
3917;BME280;1973;50.518;7.318;2023-08-17T00:18:18;101061.50;;;20.55;100.00
3917;BME280;1973;50.518;7.318;2023-08-17T00:20:45;101068.81;;;20.56;100.00
3917;BME280;1973;50.518;7.318;2023-08-17T00:23:11;101069.34;;;20.53;100.00
3917;BME280;1973;50.518;7.318;2023-08-17T00:25:38;101073.25;;;20.52;100.00
3917;BME280;1973;50.518;7.318;2023-08-17T00:28:05;101069.91;;;20.50;100.00
3917;BME280;1973;50.518;7.318;2023-08-17T00:30:32;101071.31;;;20.53;100.00
3917;BME280;1973;50.518;7.318;2023-08-17T00:33:02;101067.66;;;20.52;100.00
3917;BME280;1973;50.518;7.318;2023-08-17T00:35:29;101070.47;;;20.52;100.00
3917;BME280;1973;50.518;7.318;2023-08-17T00:37:56;101080.56;;;20.53;100.00
3917;BME280;1973;50.518;7.318;2023-08-17T00:40:22;101083.06;;;20.55;100.00
3917;BME280;1973;50.518;7.318;2023-08-17T00:42:49;101074.41;;;20.56;100.00
3917;BME280;1973;50.518;7.318;2023-08-17T00:45:16;101072.19;;;20.58;100.00
3917;BME280;1973;50.518;7.318;2023-08-17T00:47:42;101079.44;;;20.59;100.00
3917;BME280;1973;50.518;7.318;2023-08-17T00:50:10;101068.25;;;20.59;100.00
3917;BME280;1973;50.518;7.318;2023-08-17T00:52:37;101072.19;;;20.58;100.00
3917;BME280;1973;50.518;7.318;2023-08-17T00:55:05;101073.84;;;20.59;100.00
3917;BME280;1973;50.518;7.318;2023-08-17T00:57:32;101061.00;;;20.58;100.00
3917;BME280;1973;50.518;7.318;2023-08-17T00:59:59;101061.00;;;20.58;100.00
3917;BME280;1973;50.518;7.318;2023-08-17T01:02:31;101064.91;;;20.57;100.00
3917;BME280;1973;50.518;7.318;2023-08-17T01:04:59;101071.88;;;20.55;100.00
3917;BME280;1973;50.518;7.318;2023-08-17T01:07:26;101062.66;;;20.54;100.00
3917;BME280;1973;50.518;7.318;2023-08-17T01:09:54;101059.84;;;20.54;100.00
3917;BME280;1973;50.518;7.318;2023-08-17T01:12:30;101065.44;;;20.54;100.00
3917;BME280;1973;50.518;7.318;2023-08-17T01:15:15;101066.81;;;20.52;100.00
3917;BME280;1973;50.518;7.318;2023-08-17T01:20:10;101061.22;;;20.52;100.00
3917;BME280;1973;50.518;7.318;2023-08-17T01:22:41;101071.56;;;20.51;100.00
3917;BME280;1973;50.518;7.318;2023-08-17T01:25:09;101057.59;;;20.51;100.00
3917;BME280;1973;50.518;7.318;2023-08-17T01:27:44;101056.47;;;20.52;100.00
3917;BME280;1973;50.518;7.318;2023-08-17T01:30:13;101059.84;;;20.54;100.00
3917;BME280;1973;50.518;7.318;2023-08-17T01:32:58;101055.91;;;20.55;100.00
3917;BME280;1973;50.518;7.318;2023-08-17T01:35:28;101059.31;;;20.57;100.00
3917;BME280;1973;50.518;7.318;2023-08-17T01:38:00;101058.75;;;20.60;100.00
3917;BME280;1973;50.518;7.318;2023-08-17T01:40:31;101053.16;;;20.60;100.00
3917;BME280;1973;50.518;7.318;2023-08-17T01:43:00;101054.53;;;20.63;100.00
3917;BME280;1973;50.518;7.318;2023-08-17T01:45:27;101054.28;;;20.64;100.00
3917;BME280;1973;50.518;7.318;2023-08-17T01:47:57;101050.91;;;20.67;100.00
3917;BME280;1973;50.518;7.318;2023-08-17T01:50:23;101049.81;;;20.68;100.00
3917;BME280;1973;50.518;7.318;2023-08-17T01:52:50;101049.25;;;20.71;100.00
3917;BME280;1973;50.518;7.318;2023-08-17T01:55:18;101050.66;;;20.74;100.00
3917;BME280;1973;50.518;7.318;2023-08-17T01:57:45;101043.94;;;20.75;100.00
3917;BME280;1973;50.518;7.318;2023-08-17T02:00:11;101038.34;;;20.75;100.00
3917;BME280;1973;50.518;7.318;2023-08-17T02:02:38;101035.28;;;20.76;100.00
3917;BME280;1973;50.518;7.318;2023-08-17T02:05:05;101035.84;;;20.78;100.00
3917;BME280;1973;50.518;7.318;2023-08-17T02:07:32;101044.22;;;20.78;100.00
3917;BME280;1973;50.518;7.318;2023-08-17T02:09:58;101039.75;;;20.77;100.00
3917;BME280;1973;50.518;7.318;2023-08-17T02:12:25;101037.78;;;20.78;100.00
3917;BME280;1973;50.518;7.318;2023-08-17T02:14:52;101036.94;;;20.77;100.00
3917;BME280;1973;50.518;7.318;2023-08-17T02:17:19;101035.28;;;20.76;100.00
3917;BME280;1973;50.518;7.318;2023-08-17T02:19:48;101037.25;;;20.76;100.00
3917;BME280;1973;50.518;7.318;2023-08-17T02:22:15;101040.59;;;20.73;100.00
3917;BME280;1973;50.518;7.318;2023-08-17T02:24:42;101036.94;;;20.72;100.00
3917;BME280;1973;50.518;7.318;2023-08-17T02:27:09;101034.16;;;20.72;100.00
3917;BME280;1973;50.518;7.318;2023-08-17T02:29:36;101038.06;;;20.71;100.00
3917;BME280;1973;50.518;7.318;2023-08-17T02:32:03;101034.16;;;20.72;100.00
3917;BME280;1973;50.518;7.318;2023-08-17T02:34:29;101038.91;;;20.72;100.00
3917;BME280;1973;50.518;7.318;2023-08-17T02:36:56;101029.66;;;20.71;100.00
3917;BME280;1973;50.518;7.318;2023-08-17T02:39:22;101029.66;;;20.71;100.00
3917;BME280;1973;50.518;7.318;2023-08-17T02:41:49;101030.78;;;20.70;100.00
3917;BME280;1973;50.518;7.318;2023-08-17T02:44:15;101021.84;;;20.68;100.00
3917;BME280;1973;50.518;7.318;2023-08-17T02:46:42;101019.03;;;20.68;100.00
3917;BME280;1973;50.518;7.318;2023-08-17T02:49:09;101019.03;;;20.68;100.00
3917;BME280;1973;50.518;7.318;2023-08-17T02:51:35;101019.28;;;20.67;100.00
3917;BME280;1973;50.518;7.318;2023-08-17T02:54:02;101011.75;;;20.67;100.00
3917;BME280;1973;50.518;7.318;2023-08-17T02:56:28;101010.63;;;20.68;100.00
3917;BME280;1973;50.518;7.318;2023-08-17T02:58:55;101006.72;;;20.69;100.00
3917;BME280;1973;50.518;7.318;2023-08-17T03:01:22;101006.72;;;20.69;100.00
3917;BME280;1973;50.518;7.318;2023-08-17T03:03:48;101010.06;;;20.71;100.00
3917;BME280;1973;50.518;7.318;2023-08-17T03:06:15;101007.00;;;20.73;100.00
3917;BME280;1973;50.518;7.318;2023-08-17T03:08:41;101005.88;;;20.74;100.00
3917;BME280;1973;50.518;7.318;2023-08-17T03:11:08;100996.38;;;20.75;100.00
3917;BME280;1973;50.518;7.318;2023-08-17T03:13:36;101004.50;;;20.76;100.00
3917;BME280;1973;50.518;7.318;2023-08-17T03:16:03;100998.59;;;20.78;100.00
3917;BME280;1973;50.518;7.318;2023-08-17T03:18:29;100998.91;;;20.76;100.00
3917;BME280;1973;50.518;7.318;2023-08-17T03:20:56;100999.44;;;20.78;100.00
3917;BME280;1973;50.518;7.318;2023-08-17T03:23:22;100991.06;;;20.78;100.00
3917;BME280;1973;50.518;7.318;2023-08-17T03:25:53;100993.84;;;20.78;100.00
3917;BME280;1973;50.518;7.318;2023-08-17T03:28:20;100995.81;;;20.78;100.00
3917;BME280;1973;50.518;7.318;2023-08-17T03:30:46;100989.09;;;20.79;100.00
3917;BME280;1973;50.518;7.318;2023-08-17T03:33:13;100988.50;;;20.77;100.00
3917;BME280;1973;50.518;7.318;2023-08-17T03:35:39;100993.00;;;20.78;100.00
3917;BME280;1973;50.518;7.318;2023-08-17T03:38:06;100994.97;;;20.77;100.00
3917;BME280;1973;50.518;7.318;2023-08-17T03:40:32;100997.75;;;20.77;100.00
3917;BME280;1973;50.518;7.318;2023-08-17T03:42:59;100998.59;;;20.78;100.00
3917;BME280;1973;50.518;7.318;2023-08-17T03:45:26;100993.84;;;20.78;100.00
3917;BME280;1973;50.518;7.318;2023-08-17T03:47:52;100997.19;;;20.80;100.00
3917;BME280;1973;50.518;7.318;2023-08-17T03:50:19;100998.88;;;20.81;100.00
3917;BME280;1973;50.518;7.318;2023-08-17T03:52:45;101004.47;;;20.81;100.00
3917;BME280;1973;50.518;7.318;2023-08-17T03:55:12;100999.72;;;20.82;100.00
3917;BME280;1973;50.518;7.318;2023-08-17T03:57:39;101001.69;;;20.81;100.00
3917;BME280;1973;50.518;7.318;2023-08-17T04:00:06;101008.72;;;20.84;100.00
3917;BME280;1973;50.518;7.318;2023-08-17T04:02:33;101005.91;;;20.84;100.00
3917;BME280;1973;50.518;7.318;2023-08-17T04:05:00;101011.78;;;20.87;100.00
3917;BME280;1973;50.518;7.318;2023-08-17T04:07:26;101006.72;;;20.89;100.00
3917;BME280;1973;50.518;7.318;2023-08-17T04:09:54;101015.69;;;20.92;100.00
3917;BME280;1973;50.518;7.318;2023-08-17T04:12:21;101010.94;;;20.92;100.00
3917;BME280;1973;50.518;7.318;2023-08-17T04:14:47;101018.22;;;20.93;100.00
3917;BME280;1973;50.518;7.318;2023-08-17T04:17:14;101019.06;;;20.94;100.00
3917;BME280;1973;50.518;7.318;2023-08-17T04:19:40;101018.78;;;20.95;100.00
3917;BME280;1973;50.518;7.318;2023-08-17T04:22:07;101025.78;;;20.98;100.00
3917;BME280;1973;50.518;7.318;2023-08-17T04:24:33;101025.78;;;20.98;100.00
3917;BME280;1973;50.518;7.318;2023-08-17T04:27:00;101024.38;;;21.00;100.00
3917;BME280;1973;50.518;7.318;2023-08-17T04:29:27;101029.72;;;21.02;100.00
3917;BME280;1973;50.518;7.318;2023-08-17T04:31:53;101025.78;;;21.03;100.00
3917;BME280;1973;50.518;7.318;2023-08-17T04:34:20;101031.09;;;21.04;100.00
3917;BME280;1973;50.518;7.318;2023-08-17T04:36:46;101032.78;;;21.05;100.00
3917;BME280;1973;50.518;7.318;2023-08-17T04:39:13;101040.88;;;21.07;100.00
3917;BME280;1973;50.518;7.318;2023-08-17T04:41:39;101037.28;;;21.06;100.00
3917;BME280;1973;50.518;7.318;2023-08-17T04:44:06;101042.59;;;21.08;100.00
3917;BME280;1973;50.518;7.318;2023-08-17T04:46:33;101038.66;;;21.09;100.00
3917;BME280;1973;50.518;7.318;2023-08-17T04:49:00;101036.97;;;21.08;100.00
3917;BME280;1973;50.518;7.318;2023-08-17T04:51:26;101042.59;;;21.08;100.00
3917;BME280;1973;50.518;7.318;2023-08-17T04:53:53;101036.44;;;21.06;100.00
3917;BME280;1973;50.518;7.318;2023-08-17T04:56:20;101036.44;;;21.06;100.00
3917;BME280;1973;50.518;7.318;2023-08-17T04:58:47;101044.84;;;21.06;100.00
3917;BME280;1973;50.518;7.318;2023-08-17T05:01:13;101039.22;;;21.06;100.00
3917;BME280;1973;50.518;7.318;2023-08-17T05:03:40;101042.88;;;21.06;100.00
3917;BME280;1973;50.518;7.318;2023-08-17T05:06:07;101044.84;;;21.06;100.00
3917;BME280;1973;50.518;7.318;2023-08-17T05:08:33;101040.88;;;21.07;100.00
3917;BME280;1973;50.518;7.318;2023-08-17T05:11:00;101055.75;;;21.07;100.00
3917;BME280;1973;50.518;7.318;2023-08-17T05:13:26;101052.94;;;21.07;100.00
3917;BME280;1973;50.518;7.318;2023-08-17T05:15:53;101057.69;;;21.07;100.00
3917;BME280;1973;50.518;7.318;2023-08-17T05:18:20;101052.09;;;21.07;100.00
3917;BME280;1973;50.518;7.318;2023-08-17T05:20:46;101047.63;;;21.06;100.00
3917;BME280;1973;50.518;7.318;2023-08-17T05:23:13;101056.03;;;21.06;100.00
3917;BME280;1973;50.518;7.318;2023-08-17T05:25:40;101057.69;;;21.07;100.00
3917;BME280;1973;50.518;7.318;2023-08-17T05:28:06;101047.34;;;21.07;100.00
3917;BME280;1973;50.518;7.318;2023-08-17T05:30:33;101049.88;;;21.09;100.00
3917;BME280;1973;50.518;7.318;2023-08-17T05:32:59;101055.16;;;21.10;100.00
3917;BME280;1973;50.518;7.318;2023-08-17T05:35:26;101049.34;;;21.12;100.00
3917;BME280;1973;50.518;7.318;2023-08-17T05:37:53;101063.88;;;21.14;100.00
3917;BME280;1973;50.518;7.318;2023-08-17T05:40:19;101056.31;;;21.14;100.00
3917;BME280;1973;50.518;7.318;2023-08-17T05:42:46;101058.88;;;21.16;100.00
3917;BME280;1973;50.518;7.318;2023-08-17T05:45:12;101060.25;;;21.18;100.00
3917;BME280;1973;50.518;7.318;2023-08-17T05:47:39;101065.59;;;21.20;100.00
3917;BME280;1973;50.518;7.318;2023-08-17T05:50:06;101071.16;;;21.25;100.00
3917;BME280;1973;50.518;7.318;2023-08-17T05:52:33;101065.88;;;21.28;100.00
3917;BME280;1973;50.518;7.318;2023-08-17T05:54:59;101070.06;;;21.31;100.00
3917;BME280;1973;50.518;7.318;2023-08-17T05:57:26;101075.97;;;21.34;100.00
3917;BME280;1973;50.518;7.318;2023-08-17T05:59:53;101074.28;;;21.39;100.00
3917;BME280;1973;50.518;7.318;2023-08-17T06:02:19;101066.16;;;21.42;100.00
3917;BME280;1973;50.518;7.318;2023-08-17T06:04:47;101070.06;;;21.46;100.00
3917;BME280;1973;50.518;7.318;2023-08-17T06:07:14;101071.72;;;21.47;100.00
3917;BME280;1973;50.518;7.318;2023-08-17T06:09:40;101073.41;;;21.48;100.00
3917;BME280;1973;50.518;7.318;2023-08-17T06:12:07;101071.47;;;21.49;100.00
3917;BME280;1973;50.518;7.318;2023-08-17T06:14:33;101074.81;;;21.51;100.00
3917;BME280;1973;50.518;7.318;2023-08-17T06:17:00;101069.50;;;21.54;100.00
3917;BME280;1973;50.518;7.318;2023-08-17T06:19:27;101062.22;;;21.53;100.00
3917;BME280;1973;50.518;7.318;2023-08-17T06:21:53;101067.25;;;21.56;100.00
3917;BME280;1973;50.518;7.318;2023-08-17T06:24:20;101069.50;;;21.54;100.00
3917;BME280;1973;50.518;7.318;2023-08-17T06:26:47;101074.53;;;21.52;100.00
3917;BME280;1973;50.518;7.318;2023-08-17T06:29:13;101070.31;;;21.55;100.00
3917;BME280;1973;50.518;7.318;2023-08-17T06:31:40;101073.97;;;21.55;100.00
3917;BME280;1973;50.518;7.318;2023-08-17T06:34:06;101070.31;;;21.55;100.00
3917;BME280;1973;50.518;7.318;2023-08-17T06:36:33;101082.97;;;21.57;100.00
3917;BME280;1973;50.518;7.318;2023-08-17T06:38:59;101076.19;;;21.58;100.00
3917;BME280;1973;50.518;7.318;2023-08-17T06:41:26;101063.03;;;21.59;100.00
3917;BME280;1973;50.518;7.318;2023-08-17T06:43:53;101066.69;;;21.59;100.00
3917;BME280;1973;50.518;7.318;2023-08-17T06:46:19;101079.59;;;21.60;100.00
3917;BME280;1973;50.518;7.318;2023-08-17T06:48:46;101066.97;;;21.63;100.00
3917;BME280;1973;50.518;7.318;2023-08-17T06:51:12;101078.47;;;21.61;100.00
3917;BME280;1973;50.518;7.318;2023-08-17T06:53:39;101074.53;;;21.62;100.00
3917;BME280;1973;50.518;7.318;2023-08-17T06:56:05;101073.41;;;21.63;100.00
3917;BME280;1973;50.518;7.318;2023-08-17T06:58:32;101077.91;;;21.64;100.00
3917;BME280;1973;50.518;7.318;2023-08-17T07:00:59;101080.13;;;21.67;100.00
3917;BME280;1973;50.518;7.318;2023-08-17T07:03:25;101075.63;;;21.66;100.00
3917;BME280;1973;50.518;7.318;2023-08-17T07:05:52;101085.47;;;21.64;100.00
3917;BME280;1973;50.518;7.318;2023-08-17T07:08:18;101096.97;;;21.57;100.00
3917;BME280;1973;50.518;7.318;2023-08-17T07:10:45;101091.34;;;21.47;100.00
3917;BME280;1973;50.518;7.318;2023-08-17T07:13:11;101092.75;;;21.40;100.00
3917;BME280;1973;50.518;7.318;2023-08-17T07:15:38;101097.81;;;21.38;100.00
3917;BME280;1973;50.518;7.318;2023-08-17T07:18:04;101100.03;;;21.30;100.00
3917;BME280;1973;50.518;7.318;2023-08-17T07:20:31;101109.00;;;21.17;100.00
3917;BME280;1973;50.518;7.318;2023-08-17T07:22:57;101112.59;;;21.08;100.00
3917;BME280;1973;50.518;7.318;2023-08-17T07:25:24;101113.69;;;20.97;100.00
3917;BME280;1973;50.518;7.318;2023-08-17T07:27:51;101109.22;;;20.91;100.00
3917;BME280;1973;50.518;7.318;2023-08-17T07:30:17;101118.13;;;20.82;100.00
3917;BME280;1973;50.518;7.318;2023-08-17T07:32:44;101117.56;;;20.80;100.00
3917;BME280;1973;50.518;7.318;2023-08-17T07:35:11;101120.91;;;20.77;100.00
3917;BME280;1973;50.518;7.318;2023-08-17T07:37:37;101111.97;;;20.75;100.00
3917;BME280;1973;50.518;7.318;2023-08-17T07:40:04;101118.13;;;20.72;100.00
3917;BME280;1973;50.518;7.318;2023-08-17T07:42:31;101113.06;;;20.69;100.00
3917;BME280;1973;50.518;7.318;2023-08-17T07:44:58;101125.94;;;20.65;100.00
3917;BME280;1973;50.518;7.318;2023-08-17T07:47:24;101132.63;;;20.64;100.00
3917;BME280;1973;50.518;7.318;2023-08-17T07:49:52;101129.53;;;20.61;100.00
3917;BME280;1973;50.518;7.318;2023-08-17T07:52:18;101128.44;;;20.62;100.00
3917;BME280;1973;50.518;7.318;2023-08-17T07:54:45;101137.94;;;20.61;100.00
3917;BME280;1973;50.518;7.318;2023-08-17T07:57:12;101135.44;;;20.64;100.00
3917;BME280;1973;50.518;7.318;2023-08-17T07:59:38;101131.81;;;20.69;100.00
3917;BME280;1973;50.518;7.318;2023-08-17T08:02:05;101137.13;;;20.70;100.00
3917;BME280;1973;50.518;7.318;2023-08-17T08:04:32;101122.31;;;20.75;100.00
3917;BME280;1973;50.518;7.318;2023-08-17T08:06:59;101126.25;;;20.79;100.00
3917;BME280;1973;50.518;7.318;2023-08-17T08:09:25;101128.75;;;20.80;100.00
3917;BME280;1973;50.518;7.318;2023-08-17T08:11:52;101131.88;;;20.84;100.00
3917;BME280;1973;50.518;7.318;2023-08-17T08:14:18;101131.56;;;20.85;100.00
3917;BME280;1973;50.518;7.318;2023-08-17T08:16:45;101136.91;;;20.87;100.00
3917;BME280;1973;50.518;7.318;2023-08-17T08:19:11;101131.03;;;20.88;100.00
3917;BME280;1973;50.518;7.318;2023-08-17T08:21:38;101125.44;;;20.94;100.00
3917;BME280;1973;50.518;7.318;2023-08-17T08:24:05;101134.97;;;20.98;100.00
3917;BME280;1973;50.518;7.318;2023-08-17T08:26:43;101135.53;;;21.00;100.00
3917;BME280;1973;50.518;7.318;2023-08-17T08:29:09;101127.69;;;21.07;100.00
3917;BME280;1973;50.518;7.318;2023-08-17T08:31:36;101121.56;;;21.10;100.00
3917;BME280;1973;50.518;7.318;2023-08-17T08:34:03;101119.38;;;21.17;100.00
3917;BME280;1973;50.518;7.318;2023-08-17T08:36:29;101116.84;;;21.25;100.00
3917;BME280;1973;50.518;7.318;2023-08-17T08:38:56;101117.69;;;21.36;100.00
3917;BME280;1973;50.518;7.318;2023-08-17T08:41:25;101114.91;;;21.41;100.00
3917;BME280;1973;50.518;7.318;2023-08-17T08:43:53;101117.16;;;21.49;100.00
3917;BME280;1973;50.518;7.318;2023-08-17T08:46:20;101108.19;;;21.57;100.00
3917;BME280;1973;50.518;7.318;2023-08-17T08:48:50;101108.72;;;21.59;100.00
3917;BME280;1973;50.518;7.318;2023-08-17T08:51:21;101107.88;;;21.64;100.00
3917;BME280;1973;50.518;7.318;2023-08-17T08:53:54;101105.91;;;21.69;100.00
3917;BME280;1973;50.518;7.318;2023-08-17T08:56:26;101103.09;;;21.74;100.00
3917;BME280;1973;50.518;7.318;2023-08-17T08:58:53;101101.69;;;21.77;100.00
3917;BME280;1973;50.518;7.318;2023-08-17T09:01:20;101104.78;;;21.85;100.00
3917;BME280;1973;50.518;7.318;2023-08-17T09:03:48;101102.25;;;21.89;100.00
3917;BME280;1973;50.518;7.318;2023-08-17T09:06:15;101097.50;;;21.95;100.00
3917;BME280;1973;50.518;7.318;2023-08-17T09:08:43;101107.31;;;22.02;100.00
3917;BME280;1973;50.518;7.318;2023-08-17T09:11:10;101104.78;;;22.06;100.00
3917;BME280;1973;50.518;7.318;2023-08-17T09:13:36;101086.78;;;22.12;100.00
3917;BME280;1973;50.518;7.318;2023-08-17T09:16:03;101091.84;;;22.15;100.00
3917;BME280;1973;50.518;7.318;2023-08-17T09:18:34;101090.69;;;22.21;100.00
3917;BME280;1973;50.518;7.318;2023-08-17T09:21:05;101089.28;;;22.23;100.00
3917;BME280;1973;50.518;7.318;2023-08-17T09:23:31;101093.75;;;22.29;100.00
3917;BME280;1973;50.518;7.318;2023-08-17T09:26:08;101082.50;;;22.35;100.00
3917;BME280;1973;50.518;7.318;2023-08-17T09:28:38;101083.03;;;22.42;100.00
3917;BME280;1973;50.518;7.318;2023-08-17T09:31:05;101087.22;;;22.49;100.00
3917;BME280;1973;50.518;7.318;2023-08-17T09:33:32;101084.09;;;22.56;100.00
3917;BME280;1973;50.518;7.318;2023-08-17T09:35:59;101083.78;;;22.67;100.00
3917;BME280;1973;50.518;7.318;2023-08-17T09:38:27;101078.41;;;22.76;100.00
3917;BME280;1973;50.518;7.318;2023-08-17T09:40:54;101087.34;;;22.83;100.00
3917;BME280;1973;50.518;7.318;2023-08-17T09:43:21;101078.28;;;22.91;100.00
3917;BME280;1973;50.518;7.318;2023-08-17T09:45:49;101081.91;;;23.02;100.00
3917;BME280;1973;50.518;7.318;2023-08-17T09:48:19;101080.19;;;23.06;100.00
3917;BME280;1973;50.518;7.318;2023-08-17T09:50:47;101066.94;;;23.11;100.00
3917;BME280;1973;50.518;7.318;2023-08-17T09:53:18;101065.19;;;23.20;100.00
3917;BME280;1973;50.518;7.318;2023-08-17T09:55:46;101069.38;;;23.23;100.00
3917;BME280;1973;50.518;7.318;2023-08-17T09:58:13;101059.16;;;23.32;100.00
3917;BME280;1973;50.518;7.318;2023-08-17T10:00:45;101068.31;;;23.53;100.00
3917;BME280;1973;50.518;7.318;2023-08-17T10:03:17;101067.94;;;23.59;100.00
3917;BME280;1973;50.518;7.318;2023-08-17T10:05:48;101059.38;;;23.74;100.00
3917;BME280;1973;50.518;7.318;2023-08-17T10:08:21;101056.44;;;23.85;100.00
3917;BME280;1973;50.518;7.318;2023-08-17T10:10:50;101055.84;;;23.88;100.00
3917;BME280;1973;50.518;7.318;2023-08-17T10:13:29;101059.22;;;23.90;100.00
3917;BME280;1973;50.518;7.318;2023-08-17T10:16:04;101065.44;;;23.87;100.00
3917;BME280;1973;50.518;7.318;2023-08-17T10:21:09;101058.66;;;23.88;100.00
3917;BME280;1973;50.518;7.318;2023-08-17T10:23:36;101057.00;;;23.87;100.00
3917;BME280;1973;50.518;7.318;2023-08-17T10:26:08;101056.75;;;23.83;100.00
3917;BME280;1973;50.518;7.318;2023-08-17T10:28:35;101054.47;;;23.85;100.00
3917;BME280;1973;50.518;7.318;2023-08-17T10:31:02;101065.47;;;23.82;100.00
3917;BME280;1973;50.518;7.318;2023-08-17T10:33:29;101070.50;;;23.85;100.00
3917;BME280;1973;50.518;7.318;2023-08-17T10:35:56;101064.59;;;23.86;100.00
3917;BME280;1973;50.518;7.318;2023-08-17T10:38:24;101057.53;;;23.89;100.00
3917;BME280;1973;50.518;7.318;2023-08-17T10:41:10;101060.28;;;23.94;100.00
3917;BME280;1973;50.518;7.318;2023-08-17T10:43:54;101072.63;;;23.98;100.00
3917;BME280;1973;50.518;7.318;2023-08-17T10:46:21;101070.91;;;24.02;100.00
3917;BME280;1973;50.518;7.318;2023-08-17T10:48:47;101068.59;;;24.04;100.00
3917;BME280;1973;50.518;7.318;2023-08-17T10:51:14;101075.31;;;24.08;100.00
3917;BME280;1973;50.518;7.318;2023-08-17T10:53:43;101071.63;;;24.12;100.00
3917;BME280;1973;50.518;7.318;2023-08-17T10:56:12;101083.16;;;24.16;100.00
3917;BME280;1973;50.518;7.318;2023-08-17T10:58:42;101071.53;;;24.22;100.00
3917;BME280;1973;50.518;7.318;2023-08-17T11:01:09;101067.81;;;24.27;100.00
3917;BME280;1973;50.518;7.318;2023-08-17T11:03:36;101076.16;;;24.32;100.00
3917;BME280;1973;50.518;7.318;2023-08-17T11:06:16;101075.28;;;24.37;100.00
3917;BME280;1973;50.518;7.318;2023-08-17T11:08:55;101071.56;;;24.41;100.00
3917;BME280;1973;50.518;7.318;2023-08-17T11:11:23;101073.59;;;24.36;100.00
3917;BME280;1973;50.518;7.318;2023-08-17T11:13:50;101077.34;;;24.31;100.00
3917;BME280;1973;50.518;7.318;2023-08-17T11:16:23;101080.97;;;24.32;100.00
3917;BME280;1973;50.518;7.318;2023-08-17T11:18:50;101078.88;;;24.42;100.00
3917;BME280;1973;50.518;7.318;2023-08-17T11:21:17;101068.09;;;24.49;100.00
3917;BME280;1973;50.518;7.318;2023-08-17T11:23:46;101070.53;;;24.56;100.00
3917;BME280;1973;50.518;7.318;2023-08-17T11:26:16;101066.81;;;24.60;100.00
3917;BME280;1973;50.518;7.318;2023-08-17T11:28:43;101059.66;;;24.68;100.00
3917;BME280;1973;50.518;7.318;2023-08-17T11:31:12;101053.31;;;24.76;100.00
3917;BME280;1973;50.518;7.318;2023-08-17T11:33:41;101054.66;;;24.84;100.00
3917;BME280;1973;50.518;7.318;2023-08-17T11:36:09;101057.88;;;24.96;100.00
3917;BME280;1973;50.518;7.318;2023-08-17T11:38:40;101053.50;;;25.03;100.00
3917;BME280;1973;50.518;7.318;2023-08-17T11:41:08;101048.66;;;25.09;100.00
3917;BME280;1973;50.518;7.318;2023-08-17T11:43:36;101044.41;;;25.25;100.00
3917;BME280;1973;50.518;7.318;2023-08-17T11:46:04;101050.66;;;25.41;100.00
3917;BME280;1973;50.518;7.318;2023-08-17T11:48:32;101046.44;;;25.57;100.00
3917;BME280;1973;50.518;7.318;2023-08-17T11:51:01;101055.06;;;25.79;100.00
3917;BME280;1973;50.518;7.318;2023-08-17T11:53:37;101051.13;;;25.94;100.00
3917;BME280;1973;50.518;7.318;2023-08-17T11:56:06;101057.19;;;26.14;100.00
3917;BME280;1973;50.518;7.318;2023-08-17T12:01:09;101064.03;;;26.27;100.00
3917;BME280;1973;50.518;7.318;2023-08-17T12:03:36;101054.47;;;26.37;100.00
3917;BME280;1973;50.518;7.318;2023-08-17T12:06:04;101047.66;;;26.51;100.00
3917;BME280;1973;50.518;7.318;2023-08-17T12:08:31;101051.38;;;26.88;100.00
3917;BME280;1973;50.518;7.318;2023-08-17T12:10:57;101048.59;;;27.32;100.00
3917;BME280;1973;50.518;7.318;2023-08-17T12:13:34;101054.72;;;27.70;100.00
3917;BME280;1973;50.518;7.318;2023-08-17T12:16:01;101047.88;;;28.02;100.00
3917;BME280;1973;50.518;7.318;2023-08-17T12:18:28;101047.03;;;28.01;100.00
3917;BME280;1973;50.518;7.318;2023-08-17T12:20:55;101059.34;;;27.66;100.00
3917;BME280;1973;50.518;7.318;2023-08-17T12:23:22;101062.94;;;27.58;100.00
3917;BME280;1973;50.518;7.318;2023-08-17T12:25:53;101056.44;;;27.57;100.00
3917;BME280;1973;50.518;7.318;2023-08-17T12:28:22;101069.13;;;27.38;100.00
3917;BME280;1973;50.518;7.318;2023-08-17T12:30:57;101055.66;;;27.43;100.00
3917;BME280;1973;50.518;7.318;2023-08-17T12:33:24;101049.50;;;27.41;100.00
3917;BME280;1973;50.518;7.318;2023-08-17T12:35:50;101051.31;;;27.37;100.00
3917;BME280;1973;50.518;7.318;2023-08-17T12:38:17;101051.53;;;27.27;100.00
3917;BME280;1973;50.518;7.318;2023-08-17T12:40:43;101051.69;;;27.22;100.00
3917;BME280;1973;50.518;7.318;2023-08-17T12:43:10;101051.16;;;27.20;100.00
3917;BME280;1973;50.518;7.318;2023-08-17T12:45:41;101044.50;;;27.16;100.00
3917;BME280;1973;50.518;7.318;2023-08-17T12:48:07;101033.19;;;27.16;100.00
3917;BME280;1973;50.518;7.318;2023-08-17T12:50:34;101041.13;;;27.14;100.00
3917;BME280;1973;50.518;7.318;2023-08-17T12:53:01;101035.47;;;27.14;100.00
3917;BME280;1973;50.518;7.318;2023-08-17T12:55:27;101023.25;;;27.27;100.00
3917;BME280;1973;50.518;7.318;2023-08-17T12:57:54;101015.97;;;27.48;100.00
3917;BME280;1973;50.518;7.318;2023-08-17T13:00:26;101019.22;;;27.64;100.00
3917;BME280;1973;50.518;7.318;2023-08-17T13:02:52;101015.94;;;27.71;100.00
3917;BME280;1973;50.518;7.318;2023-08-17T13:05:19;100995.81;;;27.81;100.00
3917;BME280;1973;50.518;7.318;2023-08-17T13:07:46;101002.50;;;27.85;100.00
3917;BME280;1973;50.518;7.318;2023-08-17T13:10:12;100997.34;;;27.87;100.00